Time;durP1;ratioP1;P1;durP2;ratioP2;P2;SDS_P1;SDS_P2;PMS_P1;PMS_P2;Temp;Humidity;BMP_temperature;BMP_pressure;BME280_temperature;BME280_humidity;BME280_pressure;Samples;Min_cycle;Max_cycle;Signal;HPM_P1;HPM_P2
2022/08/11 00:00:14;;;;;;;3.93;2.50;;;20.70;1.00;;;;;;5088368;28;20453;-80
2022/08/11 00:02:43;;;;;;;3.37;2.60;;;20.70;1.00;;;;;;5068566;28;20488;-85
2022/08/11 00:05:18;;;;;;;5.33;2.60;;;20.70;1.00;;;;;;5091340;28;20463;-84
2022/08/11 00:07:49;;;;;;;5.43;2.33;;;20.70;1.00;;;;;;5090170;27;20820;-82
2022/08/11 00:10:20;;;;;;;2.43;2.20;;;20.70;1.00;;;;;;5090536;28;20418;-78
2022/08/11 00:12:54;;;;;;;3.40;2.10;;;20.70;1.00;;;;;;5089138;28;21739;-81
2022/08/11 00:15:24;;;;;;;3.93;2.63;;;20.60;1.00;;;;;;5088498;28;20459;-78
2022/08/11 00:18:00;;;;;;;3.00;2.70;;;20.60;1.00;;;;;;5085662;28;21060;-83
2022/08/11 00:20:31;;;;;;;4.37;2.33;;;20.60;1.00;;;;;;5089450;28;20461;-80
2022/08/11 00:23:05;;;;;;;7.27;2.53;;;20.60;1.00;;;;;;5087666;28;20435;-79
2022/08/11 00:25:44;;;;;;;4.00;2.50;;;20.50;1.00;;;;;;5086780;28;20449;-85
2022/08/11 00:28:25;;;;;;;2.87;2.00;;;20.50;1.00;;;;;;5089292;28;20473;-77
2022/08/11 00:30:58;;;;;;;6.20;2.63;;;20.50;1.00;;;;;;5087233;28;21267;-79
2022/08/11 00:33:40;;;;;;;2.40;2.20;;;20.40;1.00;;;;;;5089063;28;20529;-78
2022/08/11 00:36:08;;;;;;;2.67;2.30;;;20.40;1.00;;;;;;5088372;28;20427;-78
2022/08/11 00:38:43;;;;;;;4.03;2.50;;;20.40;1.00;;;;;;5084365;28;20432;-84
2022/08/11 00:41:37;;;;;;;3.13;2.83;;;20.30;1.00;;;;;;5091624;28;20462;-82
2022/08/11 00:44:28;;;;;;;3.30;2.90;;;20.30;1.00;;;;;;5087558;28;20462;-80
2022/08/11 00:47:28;;;;;;;3.70;2.43;;;20.20;1.00;;;;;;5092477;28;20464;-78
2022/08/11 00:50:18;;;;;;;3.03;2.50;;;20.20;1.00;;;;;;5090763;28;20450;-80
2022/08/11 00:53:05;;;;;;;4.47;2.37;;;20.10;1.00;;;;;;5087818;28;20500;-80
2022/08/11 00:56:21;;;;;;;4.23;2.37;;;20.10;1.00;;;;;;5086420;28;20474;-81
2022/08/11 00:59:40;;;;;;;5.40;2.63;;;20.10;1.00;;;;;;5090037;28;20453;-85
2022/08/11 01:02:19;;;;;;;7.27;2.67;;;20.10;1.00;;;;;;5092080;27;21336;-78
2022/08/11 01:05:45;;;;;;;3.03;2.73;;;20.10;1.00;;;;;;5086977;28;20477;-82
2022/08/11 01:09:00;;;;;;;3.00;2.70;;;20.10;1.00;;;;;;4987321;28;20472;-80
2022/08/11 01:11:53;;;;;;;2.80;2.50;;;20.00;1.00;;;;;;5054292;28;20443;-81
2022/08/11 01:14:49;;;;;;;5.20;2.77;;;20.00;1.00;;;;;;5089816;28;20443;-79
2022/08/11 01:18:00;;;;;;;5.10;3.20;;;19.90;1.00;;;;;;5091017;28;20429;-81
2022/08/11 01:24:06;;;;;;;5.83;3.20;;;19.90;1.00;;;;;;5095627;27;20542;-80
2022/08/11 01:27:20;;;;;;;6.37;2.57;;;19.80;1.00;;;;;;5065922;28;20452;-80
2022/08/11 01:30:23;;;;;;;2.90;2.70;;;19.80;1.00;;;;;;5094564;27;20486;-82
2022/08/11 01:33:40;;;;;;;7.93;2.70;;;19.70;1.00;;;;;;5064193;28;20420;-80
2022/08/11 01:36:42;;;;;;;6.00;3.00;;;19.70;1.00;;;;;;5053358;27;20494;-79
2022/08/11 01:39:50;;;;;;;3.27;2.83;;;19.70;1.00;;;;;;5081448;27;20478;-80
2022/08/11 01:46:00;;;;;;;8.90;3.63;;;19.60;1.00;;;;;;5067322;28;20443;-82
2022/08/11 01:48:43;;;;;;;3.20;2.90;;;19.60;1.00;;;;;;5083431;28;20489;-80
2022/08/11 01:51:29;;;;;;;3.40;2.70;;;19.50;1.00;;;;;;5084783;28;20461;-80
2022/08/11 01:54:05;;;;;;;3.47;3.00;;;19.50;1.00;;;;;;5067804;28;20503;-79
2022/08/11 01:56:55;;;;;;;3.60;2.60;;;19.40;1.00;;;;;;5067289;28;20465;-78
2022/08/11 01:59:29;;;;;;;5.80;3.60;;;19.40;1.00;;;;;;5063860;28;20476;-78
2022/08/11 02:05:26;;;;;;;3.47;2.57;;;19.30;1.00;;;;;;5086958;28;21025;-81
2022/08/11 02:08:08;;;;;;;3.40;3.00;;;19.30;1.00;;;;;;5085610;28;20461;-81
2022/08/11 02:13:41;;;;;;;4.80;2.93;;;19.20;1.00;;;;;;5081205;28;20474;-80
2022/08/11 02:16:22;;;;;;;4.23;3.13;;;19.10;1.00;;;;;;5086287;28;20946;-78
2022/08/11 02:24:50;;;;;;;4.10;2.80;;;19.00;1.00;;;;;;5061332;27;20526;-81
2022/08/11 02:27:23;;;;;;;5.30;3.20;;;19.00;1.00;;;;;;5077718;27;20462;-81
2022/08/11 02:30:03;;;;;;;6.17;3.00;;;18.90;1.00;;;;;;5072058;28;20400;-79
2022/08/11 02:35:41;;;;;;;4.17;3.50;;;18.90;1.00;;;;;;5052358;28;20452;-79
2022/08/11 02:38:23;;;;;;;7.10;3.47;;;18.80;1.00;;;;;;5052821;28;20431;-80
2022/08/11 02:44:11;;;;;;;4.70;3.40;;;18.70;1.00;;;;;;5049036;28;20913;-80
2022/08/11 02:46:50;;;;;;;5.60;3.10;;;18.70;1.00;;;;;;5067802;28;20416;-79
2022/08/11 02:52:31;;;;;;;8.20;4.33;;;18.60;1.00;;;;;;5046800;28;20460;-80
2022/08/11 02:55:19;;;;;;;5.03;3.70;;;18.50;1.00;;;;;;5071906;28;20471;-81
2022/08/11 02:57:54;;;;;;;4.30;3.77;;;18.50;1.00;;;;;;5054501;28;20432;-81
2022/08/11 03:00:22;;;;;;;4.60;3.33;;;18.50;1.00;;;;;;5063467;28;20435;-80
2022/08/11 03:03:01;;;;;;;6.00;5.40;;;18.40;1.00;;;;;;5075015;28;20492;-81
2022/08/11 03:05:42;;;;;;;5.63;3.80;;;18.40;1.00;;;;;;5069746;28;20444;-80
2022/08/11 03:08:23;;;;;;;3.50;3.20;;;18.40;1.00;;;;;;5071601;28;20499;-79
2022/08/11 03:16:49;;;;;;;4.40;3.90;;;18.40;1.00;;;;;;5048326;28;20559;-79
2022/08/11 03:19:30;;;;;;;5.03;4.50;;;18.30;1.00;;;;;;5054571;28;20550;-80
2022/08/11 03:22:08;;;;;;;3.30;3.00;;;18.20;1.00;;;;;;5047241;28;20431;-79
2022/08/11 03:25:08;;;;;;;8.23;4.20;;;18.20;1.00;;;;;;5046896;28;20448;-81
2022/08/11 03:27:46;;;;;;;4.40;3.80;;;18.10;1.00;;;;;;5045661;28;20477;-80
2022/08/11 03:30:20;;;;;;;8.60;5.10;;;18.10;1.00;;;;;;5049716;28;20452;-78
2022/08/11 03:36:07;;;;;;;14.20;4.77;;;18.10;1.00;;;;;;5050016;28;20457;-80
2022/08/11 03:38:47;;;;;;;11.50;5.00;;;18.00;1.00;;;;;;5045853;28;20484;-79
2022/08/11 03:41:43;;;;;;;9.20;3.93;;;18.00;1.00;;;;;;5048661;28;20507;-80
2022/08/11 03:44:34;;;;;;;28.60;7.53;;;18.00;1.00;;;;;;5044882;28;20428;-80
2022/08/11 03:47:18;;;;;;;19.70;6.60;;;17.90;1.00;;;;;;5053705;28;20511;-80
2022/08/11 03:50:01;;;;;;;15.93;6.00;;;17.90;1.00;;;;;;5036224;28;20893;-81
2022/08/11 03:52:51;;;;;;;7.60;4.70;;;17.90;1.00;;;;;;5058605;28;20435;-79
2022/08/11 03:55:33;;;;;;;7.13;4.33;;;17.90;1.00;;;;;;5053354;28;20490;-78
2022/08/11 03:58:32;;;;;;;4.13;3.83;;;17.90;1.00;;;;;;5048750;28;20470;-79
2022/08/11 04:01:51;;;;;;;10.70;4.77;;;17.90;1.00;;;;;;5045402;28;20518;-80
2022/08/11 04:05:00;;;;;;;7.83;5.73;;;17.90;1.00;;;;;;5011907;28;20463;-79
2022/08/11 04:08:07;;;;;;;4.90;4.50;;;17.90;1.00;;;;;;5045510;28;20423;-79
2022/08/11 04:11:12;;;;;;;6.33;4.27;;;17.90;1.00;;;;;;5046161;28;20452;-80
2022/08/11 04:18:01;;;;;;;6.13;4.50;;;17.90;1.00;;;;;;5035619;28;20616;-81
2022/08/11 04:21:01;;;;;;;8.70;4.80;;;17.90;1.00;;;;;;5041218;28;20475;-80
2022/08/11 04:24:21;;;;;;;10.80;5.50;;;17.90;1.00;;;;;;5069317;28;20888;-80
2022/08/11 04:27:13;;;;;;;12.00;5.13;;;17.90;1.00;;;;;;5071597;27;20467;-81
2022/08/11 04:30:07;;;;;;;6.30;5.43;;;17.90;1.00;;;;;;5057048;28;20507;-80
2022/08/11 04:33:10;;;;;;;8.80;4.93;;;17.90;1.00;;;;;;5068220;28;20459;-82
2022/08/11 04:35:53;;;;;;;7.50;4.83;;;17.90;1.00;;;;;;5029573;28;20424;-82
2022/08/11 04:39:00;;;;;;;36.80;7.90;;;17.80;1.00;;;;;;5066877;28;20438;-82
2022/08/11 04:45:28;;;;;;;8.87;6.00;;;17.80;1.00;;;;;;5068491;28;23073;-80
2022/08/11 05:04:04;;;;;;;5.53;5.00;;;18.10;1.00;;;;;;5065956;28;20471;-81
2022/08/11 05:07:12;;;;;;;14.27;7.23;;;18.10;1.00;;;;;;5066618;28;21361;-81
2022/08/11 05:10:26;;;;;;;7.20;5.63;;;18.20;1.00;;;;;;5067778;28;20471;-81
2022/08/11 05:36:08;;;;;;;8.90;6.30;;;18.80;1.00;;;;;;5066147;28;20831;-80
2022/08/11 05:58:12;;;;;;;7.07;6.47;;;19.50;1.00;;;;;;5069106;28;20463;-79
2022/08/11 06:00:44;;;;;;;7.27;6.53;;;19.60;1.00;;;;;;5066752;28;20440;-81
2022/08/11 06:03:12;;;;;;;10.67;7.30;;;19.60;1.00;;;;;;5072158;28;20448;-80
2022/08/11 06:05:43;;;;;;;8.90;6.23;;;19.70;1.00;;;;;;5058934;28;20413;-84
2022/08/11 06:08:12;;;;;;;7.53;6.40;;;19.90;1.00;;;;;;5047853;28;20460;-78
2022/08/11 06:10:45;;;;;;;6.80;6.17;;;20.00;1.00;;;;;;5053394;28;20465;-77
2022/08/11 06:13:22;;;;;;;7.17;6.50;;;20.10;1.00;;;;;;5051382;28;20855;-77
2022/08/11 06:15:51;;;;;;;9.80;8.17;;;20.20;1.00;;;;;;5049340;28;20559;-78
2022/08/11 06:18:22;;;;;;;8.03;7.23;;;20.30;1.00;;;;;;5057255;28;20417;-78
2022/08/11 06:20:54;;;;;;;9.40;7.03;;;20.30;1.00;;;;;;5053303;28;20938;-83
2022/08/11 06:23:23;;;;;;;7.60;7.00;;;20.50;1.00;;;;;;5065874;28;20446;-83
2022/08/11 06:25:52;;;;;;;11.67;7.20;;;20.60;1.00;;;;;;5072060;28;20468;-79
2022/08/11 06:28:30;;;;;;;7.03;6.33;;;20.70;1.00;;;;;;5070938;28;20412;-79
2022/08/11 06:31:03;;;;;;;6.63;6.03;;;20.70;1.00;;;;;;5051841;28;20509;-83
2022/08/11 06:33:35;;;;;;;8.77;6.60;;;20.70;1.00;;;;;;5051474;28;20461;-80
2022/08/11 06:36:13;;;;;;;7.27;6.17;;;20.80;1.00;;;;;;5052452;28;20507;-79
2022/08/11 06:39:00;;;;;;;8.70;5.83;;;20.90;1.00;;;;;;5053843;28;20406;-79
2022/08/11 06:41:34;;;;;;;6.37;5.77;;;21.00;1.00;;;;;;5048669;28;20669;-78
2022/08/11 06:44:20;;;;;;;7.23;6.53;;;21.20;1.00;;;;;;5049202;28;20409;-78
2022/08/11 06:46:50;;;;;;;6.37;5.77;;;21.30;1.00;;;;;;5050145;28;20425;-79
2022/08/11 06:52:12;;;;;;;7.60;6.00;;;21.40;1.00;;;;;;5052161;28;20468;-82
2022/08/11 06:54:53;;;;;;;7.23;6.50;;;21.40;1.00;;;;;;5054156;28;20492;-83
2022/08/11 07:03:07;;;;;;;6.73;5.70;;;21.70;1.00;;;;;;5046014;28;20464;-81
2022/08/11 07:05:45;;;;;;;8.03;7.03;;;21.80;1.00;;;;;;5049939;28;20459;-79
2022/08/11 07:29:15;;;;;;;6.20;5.20;;;23.00;1.00;;;;;;5051338;28;20476;-79
2022/08/11 07:31:48;;;;;;;6.30;5.77;;;23.10;1.00;;;;;;5050997;28;20456;-80
2022/08/11 07:34:22;;;;;;;6.77;5.23;;;23.20;1.00;;;;;;5044293;28;20957;-78
2022/08/11 07:36:55;;;;;;;5.70;5.13;;;23.30;1.00;;;;;;5048872;28;20576;-79
2022/08/11 07:39:24;;;;;;;5.67;5.00;;;23.50;1.00;;;;;;5049127;28;20554;-80
2022/08/11 07:41:57;;;;;;;9.33;5.53;;;23.60;1.00;;;;;;5058986;28;20424;-79
2022/08/11 07:44:30;;;;;;;8.80;6.30;;;23.70;1.00;;;;;;5054465;28;20449;-78
2022/08/11 07:52:35;;;;;;;5.53;4.53;;;24.00;1.00;;;;;;5054290;28;20452;-79
2022/08/11 07:55:07;;;;;;;4.80;3.70;;;24.20;1.00;;;;;;5055415;28;20552;-80
2022/08/11 08:19:55;;;;;;;5.10;4.70;;;25.50;1.00;;;;;;5053590;28;20441;-78
2022/08/11 08:22:27;;;;;;;8.50;4.50;;;25.50;1.00;;;;;;5051104;28;20592;-80
2022/08/11 08:25:03;;;;;;;4.40;4.00;;;25.70;1.00;;;;;;5060268;28;20467;-80
2022/08/11 08:27:31;;;;;;;6.63;4.90;;;25.80;1.00;;;;;;5071839;28;20483;-79
2022/08/11 08:32:50;;;;;;;5.57;4.20;;;26.00;1.00;;;;;;5069586;28;20641;-80
2022/08/11 08:35:24;;;;;;;4.40;4.10;;;26.10;1.00;;;;;;5056845;28;20437;-82
2022/08/11 08:37:53;;;;;;;6.73;6.13;;;26.20;1.00;;;;;;5050139;28;20458;-81
2022/08/11 08:40:22;;;;;;;5.07;4.60;;;26.30;1.00;;;;;;5053021;28;20444;-81
2022/08/11 08:42:53;;;;;;;8.63;5.37;;;26.40;1.00;;;;;;5050664;28;20445;-79
2022/08/11 08:45:26;;;;;;;5.20;4.07;;;26.60;1.00;;;;;;5049988;28;20460;-79
2022/08/11 08:48:03;;;;;;;6.60;4.30;;;26.90;1.00;;;;;;5050307;28;20452;-84
2022/08/11 08:53:31;;;;;;;6.73;4.40;;;27.10;1.00;;;;;;5056125;28;20464;-81
2022/08/11 08:56:04;;;;;;;4.70;4.00;;;27.20;1.00;;;;;;5048687;28;20433;-81
2022/08/11 08:58:37;;;;;;;4.43;4.03;;;27.30;1.00;;;;;;5053091;28;20490;-78
2022/08/11 09:01:10;;;;;;;4.23;3.80;;;27.40;1.00;;;;;;5052644;28;20530;-79
2022/08/11 09:03:47;;;;;;;7.13;4.03;;;27.50;1.00;;;;;;5071394;28;20581;-79
2022/08/11 09:06:20;;;;;;;5.17;3.80;;;27.60;1.00;;;;;;5072643;28;20433;-79
2022/08/11 09:08:48;;;;;;;5.27;3.63;;;27.80;1.00;;;;;;5065884;28;20432;-79
2022/08/11 09:14:03;;;;;;;6.23;3.63;;;28.00;1.00;;;;;;5047896;28;20447;-81
2022/08/11 09:16:32;;;;;;;6.50;4.63;;;28.20;1.00;;;;;;5047486;28;20501;-80
2022/08/11 09:19:03;;;;;;;3.73;3.40;;;28.30;1.00;;;;;;5057470;28;20413;-82
2022/08/11 09:21:31;;;;;;;5.80;4.00;;;28.40;1.00;;;;;;5079953;28;20490;-82
2022/08/11 09:27:01;;;;;;;5.37;3.73;;;28.50;1.00;;;;;;5071234;28;20444;-80
2022/08/11 09:29:30;;;;;;;6.73;3.80;;;28.60;1.00;;;;;;5070355;28;20455;-80
2022/08/11 09:32:04;;;;;;;4.80;3.70;;;28.70;1.00;;;;;;5067646;28;20480;-81
2022/08/11 09:34:35;;;;;;;4.70;3.60;;;28.90;1.00;;;;;;5071895;28;20899;-82
2022/08/11 09:45:20;;;;;;;4.17;3.80;;;32.70;1.00;;;;;;5077460;27;20474;-80
2022/08/11 09:47:53;;;;;;;3.83;3.53;;;34.20;1.00;;;;;;5072744;28;20484;-79
2022/08/11 09:50:22;;;;;;;5.03;3.60;;;35.70;1.00;;;;;;5064097;28;20457;-80
2022/08/11 09:52:52;;;;;;;5.73;4.60;;;36.80;1.00;;;;;;5052479;28;20503;-80
2022/08/11 09:55:21;;;;;;;5.30;4.10;;;37.80;1.00;;;;;;5052265;28;21005;-79
2022/08/11 10:00:42;;;;;;;3.80;3.40;;;38.40;1.00;;;;;;5050856;28;20981;-79
2022/08/11 10:03:17;;;;;;;6.40;4.60;;;38.90;1.00;;;;;;5050196;28;20448;-83
2022/08/11 10:08:35;;;;;;;4.07;3.43;;;38.90;1.00;;;;;;5069195;28;20479;-79
2022/08/11 10:11:03;;;;;;;3.17;2.87;;;38.10;1.00;;;;;;5070018;28;20455;-84
2022/08/11 10:15:32;;;;;;;4.67;4.10;;;38.60;1.00;;;;;;5055247;28;20442;-83
2022/08/11 10:16:25;;;;;;;3.90;3.50;;;39.40;1.00;;;;;;5051936;28;20444;-79
2022/08/11 10:18:56;;;;;;;3.83;3.00;;;40.30;1.00;;;;;;5060385;28;20436;-84
2022/08/11 10:21:33;;;;;;;3.87;3.43;;;40.70;1.00;;;;;;5075054;28;20465;-80
2022/08/11 10:26:57;;;;;;;6.10;4.20;;;39.70;1.00;;;;;;5044761;28;20455;-82
2022/08/11 10:35:01;;;;;;;4.60;3.50;;;38.00;1.00;;;;;;5044244;28;21245;-80
2022/08/11 10:37:33;;;;;;;3.53;3.23;;;39.20;1.00;;;;;;5073875;28;20427;-81
2022/08/11 10:40:02;;;;;;;3.50;3.30;;;40.30;1.00;;;;;;5047781;28;21680;-80
2022/08/11 10:48:01;;;;;;;4.10;3.30;;;41.10;1.00;;;;;;5054171;28;20452;-83
2022/08/11 10:58:58;;;;;;;8.03;6.47;;;42.00;1.00;;;;;;5060830;28;20846;-80
2022/08/11 11:01:29;;;;;;;4.53;3.73;;;41.00;1.00;;;;;;5070221;28;20460;-79
2022/08/11 11:04:00;;;;;;;6.33;3.83;;;41.30;1.00;;;;;;5063439;28;20521;-81
2022/08/11 11:06:43;;;;;;;4.10;3.80;;;42.30;1.00;;;;;;5068987;28;20469;-80
2022/08/11 11:09:17;;;;;;;3.67;3.37;;;42.50;1.00;;;;;;5070009;28;20509;-83
2022/08/11 11:20:22;;;;;;;3.93;3.63;;;38.30;1.00;;;;;;5068782;28;20460;-80
2022/08/11 11:22:56;;;;;;;4.27;3.87;;;37.70;1.00;;;;;;5069358;28;20458;-84
2022/08/11 11:25:41;;;;;;;4.57;4.27;;;37.80;1.00;;;;;;5069841;28;21293;-83
2022/08/11 11:28:28;;;;;;;3.27;2.97;;;39.20;1.00;;;;;;5073086;28;20474;-83
2022/08/11 11:31:11;;;;;;;3.80;3.07;;;40.50;1.00;;;;;;5070261;28;20459;-85
2022/08/11 11:34:12;;;;;;;4.10;3.70;;;40.90;1.00;;;;;;5073872;28;20425;-85
2022/08/11 11:36:49;;;;;;;3.40;3.10;;;41.90;1.00;;;;;;5071053;28;20416;-84
2022/08/11 11:39:25;;;;;;;4.40;3.10;;;42.60;1.00;;;;;;5073616;28;20486;-84
2022/08/11 11:41:54;;;;;;;4.83;3.77;;;42.80;1.00;;;;;;5069922;28;20451;-81
2022/08/11 11:44:22;;;;;;;3.73;3.40;;;43.40;1.00;;;;;;5072298;28;20500;-83
2022/08/11 11:46:50;;;;;;;4.03;2.90;;;43.60;1.00;;;;;;5067813;28;20531;-84
2022/08/11 11:49:22;;;;;;;6.23;4.10;;;43.80;1.00;;;;;;5068959;28;20471;-83
2022/08/11 11:51:58;;;;;;;3.20;2.90;;;44.10;1.00;;;;;;5065896;28;20507;-83
2022/08/11 11:54:32;;;;;;;3.87;3.50;;;43.90;1.00;;;;;;5063482;28;20894;-82
2022/08/11 12:02:35;;;;;;;3.20;2.90;;;44.00;1.00;;;;;;5069990;28;20533;-82
2022/08/11 12:05:05;;;;;;;3.77;2.90;;;43.70;1.00;;;;;;5068557;28;20455;-84
2022/08/11 12:10:26;;;;;;;4.90;2.67;;;43.40;1.00;;;;;;5069430;28;20498;-83
2022/08/11 12:15:42;;;;;;;5.13;3.43;;;44.00;1.00;;;;;;5071515;28;20457;-85
2022/08/11 12:18:11;;;;;;;4.07;3.67;;;44.30;1.00;;;;;;5069804;28;20460;-84
2022/08/11 12:20:43;;;;;;;2.93;2.63;;;44.20;1.00;;;;;;5065219;28;20428;-83
2022/08/11 12:28:50;;;;;;;3.17;2.97;;;44.50;1.00;;;;;;5066832;28;20396;-83
2022/08/11 12:31:24;;;;;;;4.63;2.70;;;45.00;1.00;;;;;;5072310;28;20503;-82
2022/08/11 12:33:52;;;;;;;3.03;2.73;;;44.90;1.00;;;;;;5068507;28;20542;-84
2022/08/11 12:36:23;;;;;;;2.50;2.30;;;44.70;1.00;;;;;;5072616;28;20429;-84
2022/08/11 12:38:51;;;;;;;7.30;3.87;;;44.80;1.00;;;;;;5081269;28;20451;-83
2022/08/11 12:47:03;;;;;;;3.50;2.77;;;45.20;1.00;;;;;;5067200;28;20448;-84
2022/08/11 12:52:34;;;;;;;4.57;3.10;;;45.60;1.00;;;;;;5040747;28;20476;-81
2022/08/11 12:55:12;;;;;;;4.30;3.20;;;45.80;1.00;;;;;;5065433;28;20405;-83
2022/08/11 13:06:09;;;;;;;3.90;2.80;;;44.30;1.00;;;;;;5066225;28;20463;-82
2022/08/11 13:08:43;;;;;;;2.87;2.60;;;44.80;1.00;;;;;;5063449;28;20460;-83
2022/08/11 13:14:02;;;;;;;3.63;3.00;;;45.20;1.00;;;;;;5070574;28;20458;-82
2022/08/11 13:17:19;;;;;;;7.33;3.00;;;44.80;1.00;;;;;;5067827;28;20452;-84
2022/08/11 13:19:26;;;;;;;5.37;4.27;;;44.70;1.00;;;;;;5064652;28;20428;-82
2022/08/11 13:21:53;;;;;;;2.60;2.20;;;45.10;1.00;;;;;;5064452;28;20531;-80
2022/08/11 13:24:27;;;;;;;3.80;2.37;;;45.40;1.00;;;;;;5065252;28;20563;-81
2022/08/11 13:26:54;;;;;;;3.30;2.50;;;45.80;1.00;;;;;;5069656;28;20916;-80
2022/08/11 13:29:26;;;;;;;3.07;2.10;;;45.70;1.00;;;;;;5062924;28;20578;-83
2022/08/11 13:31:55;;;;;;;3.43;3.13;;;44.80;1.00;;;;;;5061611;28;20460;-84
2022/08/11 13:34:26;;;;;;;3.50;2.37;;;44.80;1.00;;;;;;5072015;28;20458;-84
2022/08/11 13:36:55;;;;;;;4.63;2.30;;;45.00;1.00;;;;;;5074742;28;20468;-83
2022/08/11 13:39:28;;;;;;;2.53;2.30;;;44.90;1.00;;;;;;5047877;28;20432;-82
2022/08/11 13:41:58;;;;;;;2.97;1.83;;;44.90;1.00;;;;;;5056759;28;20469;-82
2022/08/11 13:44:34;;;;;;;7.13;2.17;;;45.20;1.00;;;;;;5068517;28;20558;-80
2022/08/11 13:47:06;;;;;;;2.40;2.20;;;45.00;1.00;;;;;;5057343;28;20517;-82
2022/08/11 13:49:36;;;;;;;6.57;3.10;;;44.80;1.00;;;;;;5045988;28;20489;-83
2022/08/11 13:52:05;;;;;;;2.60;2.40;;;45.20;1.00;;;;;;5049262;28;20460;-85
2022/08/11 13:54:35;;;;;;;4.77;2.40;;;45.20;1.00;;;;;;5068378;28;20438;-83
2022/08/11 13:57:10;;;;;;;2.30;2.10;;;45.60;1.00;;;;;;5048133;28;20549;-83
2022/08/11 13:59:40;;;;;;;4.67;2.13;;;45.10;1.00;;;;;;5048252;28;20539;-83
2022/08/11 14:02:16;;;;;;;2.60;1.90;;;45.20;1.00;;;;;;5046864;28;20590;-82
2022/08/11 14:04:47;;;;;;;3.37;2.33;;;44.00;1.00;;;;;;5042863;28;20514;-82
2022/08/11 14:07:22;;;;;;;3.97;2.57;;;43.90;1.00;;;;;;5051790;28;20927;-83
2022/08/11 14:10:00;;;;;;;2.50;2.30;;;43.60;1.00;;;;;;5047572;28;20413;-84
2022/08/11 14:15:23;;;;;;;2.03;1.90;;;43.80;1.00;;;;;;5049470;28;20465;-81
2022/08/11 14:18:02;;;;;;;6.17;2.60;;;43.90;1.00;;;;;;5051206;28;20417;-82
2022/08/11 14:22:05;;;;;;;1.93;1.63;;;43.80;1.00;;;;;;5051332;28;20447;-83
2022/08/11 14:23:30;;;;;;;4.37;2.80;;;43.60;1.00;;;;;;5053308;28;20464;-83
2022/08/11 14:28:44;;;;;;;5.00;3.47;;;44.00;1.00;;;;;;5047619;28;20592;-88
2022/08/11 14:31:14;;;;;;;2.70;1.77;;;43.90;1.00;;;;;;5047892;28;20522;-81
2022/08/11 14:33:45;;;;;;;6.83;2.63;;;43.80;1.00;;;;;;5041274;28;20423;-81
2022/08/11 14:36:13;;;;;;;4.53;2.00;;;43.60;1.00;;;;;;5048001;28;20471;-82
2022/08/11 14:38:49;;;;;;;4.30;3.20;;;43.70;1.00;;;;;;5048776;28;20429;-86
2022/08/11 14:47:07;;;;;;;4.87;3.20;;;44.80;1.00;;;;;;5073533;28;20975;-82
2022/08/11 14:49:36;;;;;;;4.20;2.03;;;45.20;1.00;;;;;;5076846;28;20455;-81
2022/08/11 14:52:08;;;;;;;2.10;2.00;;;44.90;1.00;;;;;;5079178;28;20450;-87
2022/08/11 14:57:27;;;;;;;2.00;1.80;;;44.10;1.00;;;;;;5076292;28;20475;-90
2022/08/11 14:59:58;;;;;;;3.80;2.13;;;43.30;1.00;;;;;;5044440;28;20456;-81
2022/08/11 15:05:15;;;;;;;3.07;2.03;;;42.30;1.00;;;;;;5072544;28;20428;-89
2022/08/11 15:07:52;;;;;;;2.40;1.93;;;42.40;1.00;;;;;;5072469;28;20464;-80
2022/08/11 15:10:20;;;;;;;2.30;1.83;;;42.40;1.00;;;;;;5068255;28;20552;-81
2022/08/11 15:12:52;;;;;;;2.03;1.90;;;42.60;1.00;;;;;;5056023;28;20442;-81
2022/08/11 15:18:14;;;;;;;2.57;1.90;;;42.40;1.00;;;;;;5051723;28;20456;-82
2022/08/11 15:37:55;;;;;;;2.50;1.63;;;41.30;1.00;;;;;;5072443;28;20441;-82
2022/08/11 15:46:11;;;;;;;2.80;1.93;;;41.10;1.00;;;;;;5036563;28;20489;-87
2022/08/11 15:48:47;;;;;;;3.57;2.63;;;41.30;1.00;;;;;;5054128;28;20480;-86
2022/08/11 15:51:23;;;;;;;1.73;1.63;;;41.50;1.00;;;;;;5055792;28;20480;-85
2022/08/11 15:53:57;;;;;;;2.17;1.97;;;41.50;1.00;;;;;;5059647;28;20456;-86
2022/08/11 15:56:33;;;;;;;3.10;2.20;;;41.10;1.00;;;;;;5053819;28;20533;-87
2022/08/11 16:04:44;;;;;;;5.93;2.73;;;40.40;1.00;;;;;;5068161;28;20979;-81
2022/08/11 16:07:25;;;;;;;1.97;1.80;;;40.40;1.00;;;;;;5070947;28;20438;-80
2022/08/11 16:09:58;;;;;;;1.63;1.47;;;40.60;1.00;;;;;;5045985;28;20444;-82
2022/08/11 16:12:33;;;;;;;1.90;1.73;;;40.70;1.00;;;;;;5054154;28;20534;-82
2022/08/11 16:17:55;;;;;;;4.07;1.80;;;39.60;1.00;;;;;;5079141;28;20448;-91
2022/08/11 16:20:29;;;;;;;2.40;2.20;;;39.20;1.00;;;;;;5073790;28;20514;-90
2022/08/11 16:23:04;;;;;;;2.27;2.07;;;38.70;1.00;;;;;;5061610;28;20559;-89
2022/08/11 16:25:35;;;;;;;2.90;1.93;;;38.30;1.00;;;;;;5072585;28;20428;-86
2022/08/11 16:28:06;;;;;;;3.43;2.00;;;37.80;1.00;;;;;;5072646;28;20545;-82
2022/08/11 16:30:37;;;;;;;2.33;2.03;;;37.40;1.00;;;;;;5068576;28;20467;-82
2022/08/11 16:33:13;;;;;;;4.93;1.93;;;36.90;1.00;;;;;;5074902;28;20485;-82
2022/08/11 16:38:38;;;;;;;3.40;1.63;;;36.10;1.00;;;;;;5069318;28;20967;-91
2022/08/11 16:41:12;;;;;;;2.10;1.60;;;35.50;1.00;;;;;;5072389;28;20467;-87
2022/08/11 16:49:23;;;;;;;3.10;2.40;;;35.40;1.00;;;;;;5077134;28;20511;-82
2022/08/11 16:51:51;;;;;;;3.73;2.40;;;35.80;1.00;;;;;;5059061;28;20907;-88
2022/08/11 16:54:28;;;;;;;3.93;2.00;;;35.70;1.00;;;;;;5052862;28;20500;-82
2022/08/11 16:59:12;;;;;;;1.70;1.47;;;35.30;1.00;;;;;;5049640;28;20535;-82
2022/08/11 16:59:52;;;;;;;3.70;1.93;;;34.90;1.00;;;;;;5051444;28;20475;-87
2022/08/11 17:14:03;;;;;;;3.97;2.27;;;33.80;1.00;;;;;;5052915;28;20443;-81
2022/08/11 17:16:35;;;;;;;2.87;1.87;;;33.70;1.00;;;;;;5072654;28;20481;-82
2022/08/11 17:19:09;;;;;;;4.10;2.03;;;33.60;1.00;;;;;;5067187;28;20425;-82
2022/08/11 17:24:27;;;;;;;4.53;2.50;;;32.90;1.00;;;;;;5070192;28;20454;-82
2022/08/11 17:26:57;;;;;;;2.00;1.80;;;32.70;1.00;;;;;;5067349;28;20471;-82
2022/08/11 17:29:29;;;;;;;6.07;2.30;;;32.60;1.00;;;;;;5066726;28;20455;-83
2022/08/11 17:37:33;;;;;;;3.23;2.27;;;31.50;1.00;;;;;;5065155;28;20503;-81
2022/08/11 17:40:05;;;;;;;2.30;1.80;;;31.20;1.00;;;;;;5067646;28;20511;-88
2022/08/11 17:48:28;;;;;;;4.17;1.97;;;30.00;1.00;;;;;;5052635;28;20455;-89
2022/08/11 17:50:58;;;;;;;2.23;1.80;;;29.70;1.00;;;;;;5054067;28;20436;-89
2022/08/11 17:59:52;;;;;;;7.80;3.17;;;29.00;1.00;;;;;;5073620;28;20478;-87
2022/08/11 18:05:17;;;;;;;2.40;2.10;;;28.60;1.00;;;;;;5042552;28;20471;-89
